PWSweather.com
Personal Weather Stations
Station Observations
KCARIDGE3
Ridgecrest, CA 93555

Ridgecrest, CA 93555

Lat: 35.62083817, Lon: -117.6733017

Elevation: 2315

Station Type:

High Low Average
Temperature 81.0°F27.2°F 61.0°F16.1°F 70.1°F21.2°F
Dew Point 43.5°F6.4°F 26.8°F-2.9°F 38.1°F3.4°F
Winds 23.0 mph WSW37.0 mph WSW 0.9 mph 1.4 mph 8.4 mph 13.5 mph
Wind Gusts 32.0 mph51.5 mph -- 8.2 mph13.2 mph
Humidity 51% 14% 33%
Pressure 0.00 in0.00 in 0.00 in0.00 in -
Precipitation 0.00 in0.00 in - -
Hour Temp Dew Point Humidity Winds Wind Gusts Pressure Precip Precip Rate Daily Precip Total
12:02 AM 68.0°F20.0°C 42.1°F5.6°C 39% 19.9 mph SW32.0 kmh SW 23.0 mph37.0 kmh -338605.1 mb 0.00 in0.0 mm 0.00 in/hr0.0 mm/hr 0.00 in0.0 mm
12:07 AM 68.0°F20.0°C 42.8°F6.0°C 40% 19.0 mph S30.6 kmh S 10.1 mph16.3 kmh -338605.1 mb 0.00 in0.0 mm 0.00 in/hr0.0 mm/hr 0.00 in0.0 mm
12:12 AM 67.8°F19.9°C 41.9°F5.5°C 39% 17.0 mph SW27.4 kmh SW 32.0 mph51.5 kmh -338605.1 mb 0.00 in0.0 mm 0.00 in/hr0.0 mm/hr 0.00 in0.0 mm
12:17 AM 67.6°F19.8°C 41.7°F5.4°C 39% 17.9 mph WSW28.8 kmh WSW 16.1 mph25.9 kmh -338605.1 mb 0.00 in0.0 mm 0.00 in/hr0.0 mm/hr 0.00 in0.0 mm
12:22 AM 67.6°F19.8°C 42.4°F5.8°C 40% 19.0 mph SW30.6 kmh SW 27.1 mph43.6 kmh -338605.1 mb 0.00 in0.0 mm 0.00 in/hr0.0 mm/hr 0.00 in0.0 mm
12:27 AM 67.6°F19.8°C 43.2°F6.2°C 41% 21.0 mph WSW33.8 kmh WSW 19.0 mph30.6 kmh -338605.1 mb 0.00 in0.0 mm 0.00 in/hr0.0 mm/hr 0.00 in0.0 mm
12:32 AM 67.5°F19.7°C 43.0°F6.1°C 41% 23.0 mph WSW37.0 kmh WSW 27.1 mph43.6 kmh -338605.1 mb 0.00 in0.0 mm 0.00 in/hr0.0 mm/hr 0.00 in0.0 mm
12:37 AM 67.3°F19.6°C 43.3°F6.3°C 42% 19.9 mph SW32.0 kmh SW 8.1 mph13.0 kmh -338605.1 mb 0.00 in0.0 mm 0.00 in/hr0.0 mm/hr 0.00 in0.0 mm
12:42 AM 67.3°F19.6°C 43.3°F6.3°C 42% 17.0 mph SW27.4 kmh SW 6.9 mph11.1 kmh -338605.1 mb 0.00 in0.0 mm 0.00 in/hr0.0 mm/hr 0.00 in0.0 mm
12:47 AM 67.1°F19.5°C 42.6°F5.9°C 41% 16.1 mph SW25.9 kmh SW 8.1 mph13.0 kmh -338605.1 mb 0.00 in0.0 mm 0.00 in/hr0.0 mm/hr 0.00 in0.0 mm
12:52 AM 66.9°F19.4°C 43.2°F6.2°C 42% 14.1 mph WSW22.7 kmh WSW 17.9 mph28.8 kmh -338605.1 mb 0.00 in0.0 mm 0.00 in/hr0.0 mm/hr 0.00 in0.0 mm
12:57 AM 66.7°F19.3°C 43.0°F6.1°C 42% 15.0 mph SW24.1 kmh SW 15.0 mph24.1 kmh -338605.1 mb 0.00 in0.0 mm 0.00 in/hr0.0 mm/hr 0.00 in0.0 mm
01:02 AM 66.9°F19.4°C 43.2°F6.2°C 42% 15.0 mph SSW24.1 kmh SSW 15.0 mph24.1 kmh -338605.1 mb 0.00 in0.0 mm 0.00 in/hr0.0 mm/hr 0.00 in0.0 mm
01:07 AM 66.7°F19.3°C 42.3°F5.7°C 41% 13.0 mph SW20.9 kmh SW 19.9 mph32.0 kmh -338605.1 mb 0.00 in0.0 mm 0.00 in/hr0.0 mm/hr 0.00 in0.0 mm
01:12 AM 66.7°F19.3°C 42.3°F5.7°C 41% 13.0 mph SW20.9 kmh SW 14.1 mph22.7 kmh -338605.1 mb 0.00 in0.0 mm 0.00 in/hr0.0 mm/hr 0.00 in0.0 mm
01:17 AM 66.6°F19.2°C 42.8°F6.0°C 42% 14.1 mph SSW22.7 kmh SSW 12.1 mph19.5 kmh -338605.1 mb 0.00 in0.0 mm 0.00 in/hr0.0 mm/hr 0.00 in0.0 mm
01:22 AM 66.6°F19.2°C 42.1°F5.6°C 41% 14.1 mph SSW22.7 kmh SSW 13.0 mph20.9 kmh -338605.1 mb 0.00 in0.0 mm 0.00 in/hr0.0 mm/hr 0.00 in0.0 mm
01:27 AM 66.6°F19.2°C 42.8°F6.0°C 42% 15.0 mph SW24.1 kmh SW 19.0 mph30.6 kmh -338605.1 mb 0.00 in0.0 mm 0.00 in/hr0.0 mm/hr 0.00 in0.0 mm
01:32 AM 66.6°F19.2°C 42.8°F6.0°C 42% 15.0 mph SW24.1 kmh SW 19.0 mph30.6 kmh -338605.1 mb 0.00 in0.0 mm 0.00 in/hr0.0 mm/hr 0.00 in0.0 mm
01:37 AM 66.4°F19.1°C 42.6°F5.9°C 42% 15.0 mph SW24.1 kmh SW 16.1 mph25.9 kmh -338605.1 mb 0.00 in0.0 mm 0.00 in/hr0.0 mm/hr 0.00 in0.0 mm
01:42 AM 66.6°F19.2°C 42.8°F6.0°C 42% 15.0 mph WSW24.1 kmh WSW 11.0 mph17.7 kmh -338605.1 mb 0.00 in0.0 mm 0.00 in/hr0.0 mm/hr 0.00 in0.0 mm
01:47 AM 66.6°F19.2°C 42.8°F6.0°C 42% 16.1 mph SW25.9 kmh SW 16.1 mph25.9 kmh -338605.1 mb 0.00 in0.0 mm 0.00 in/hr0.0 mm/hr 0.00 in0.0 mm
01:52 AM 66.6°F19.2°C 42.1°F5.6°C 41% 15.0 mph SW24.1 kmh SW 13.0 mph20.9 kmh -338605.1 mb 0.00 in0.0 mm 0.00 in/hr0.0 mm/hr 0.00 in0.0 mm
01:57 AM 66.6°F19.2°C 41.5°F5.3°C 40% 15.0 mph SW24.1 kmh SW 19.0 mph30.6 kmh -338605.1 mb 0.00 in0.0 mm 0.00 in/hr0.0 mm/hr 0.00 in0.0 mm
02:02 AM 66.7°F19.3°C 40.3°F4.6°C 38% 17.9 mph SW28.8 kmh SW 25.1 mph40.4 kmh -338605.1 mb 0.00 in0.0 mm 0.00 in/hr0.0 mm/hr 0.00 in0.0 mm
02:07 AM 66.9°F19.4°C 40.5°F4.7°C 38% 19.0 mph WSW30.6 kmh WSW 21.0 mph33.8 kmh -338605.1 mb 0.00 in0.0 mm 0.00 in/hr0.0 mm/hr 0.00 in0.0 mm
02:12 AM 66.9°F19.4°C 41.2°F5.1°C 39% 17.0 mph SW27.4 kmh SW 21.9 mph35.2 kmh -338605.1 mb 0.00 in0.0 mm 0.00 in/hr0.0 mm/hr 0.00 in0.0 mm
02:17 AM 66.9°F19.4°C 41.9°F5.5°C 40% 16.1 mph SW25.9 kmh SW 14.1 mph22.7 kmh -338605.1 mb 0.00 in0.0 mm 0.00 in/hr0.0 mm/hr 0.00 in0.0 mm
02:22 AM 66.7°F19.3°C 41.7°F5.4°C 40% 16.1 mph SW25.9 kmh SW 17.0 mph27.4 kmh -338605.1 mb 0.00 in0.0 mm 0.00 in/hr0.0 mm/hr 0.00 in0.0 mm
02:27 AM 66.6°F19.2°C 41.5°F5.3°C 40% 15.0 mph SW24.1 kmh SW 13.0 mph20.9 kmh -338605.1 mb 0.00 in0.0 mm 0.00 in/hr0.0 mm/hr 0.00 in0.0 mm
02:32 AM 66.4°F19.1°C 41.9°F5.5°C 41% 12.1 mph SW19.5 kmh SW 15.0 mph24.1 kmh -338605.1 mb 0.00 in0.0 mm 0.00 in/hr0.0 mm/hr 0.00 in0.0 mm
02:37 AM 66.2°F19.0°C 41.7°F5.4°C 41% 11.0 mph SW17.7 kmh SW 12.1 mph19.5 kmh -338605.1 mb 0.00 in0.0 mm 0.00 in/hr0.0 mm/hr 0.00 in0.0 mm
02:42 AM 66.0°F18.9°C 41.0°F5.0°C 40% 10.1 mph SW16.3 kmh SW 6.9 mph11.1 kmh -338605.1 mb 0.00 in0.0 mm 0.00 in/hr0.0 mm/hr 0.00 in0.0 mm
02:47 AM 66.0°F18.9°C 40.3°F4.6°C 39% 11.0 mph SW17.7 kmh SW 8.9 mph14.3 kmh -338605.1 mb 0.00 in0.0 mm 0.00 in/hr0.0 mm/hr 0.00 in0.0 mm
02:52 AM 65.8°F18.8°C 40.1°F4.5°C 39% 11.0 mph SW17.7 kmh SW 15.0 mph24.1 kmh -338605.1 mb 0.00 in0.0 mm 0.00 in/hr0.0 mm/hr 0.00 in0.0 mm
02:57 AM 65.8°F18.8°C 40.1°F4.5°C 39% 11.0 mph SSW17.7 kmh SSW 12.1 mph19.5 kmh -338605.1 mb 0.00 in0.0 mm 0.00 in/hr0.0 mm/hr 0.00 in0.0 mm
03:02 AM 65.8°F18.8°C 40.1°F4.5°C 39% 12.1 mph SW19.5 kmh SW 8.9 mph14.3 kmh -338605.1 mb 0.00 in0.0 mm 0.00 in/hr0.0 mm/hr 0.00 in0.0 mm
03:07 AM 65.7°F18.7°C 40.1°F4.5°C 39% 11.0 mph SW17.7 kmh SW 17.9 mph28.8 kmh -338605.1 mb 0.00 in0.0 mm 0.00 in/hr0.0 mm/hr 0.00 in0.0 mm
03:12 AM 65.8°F18.8°C 40.1°F4.5°C 39% 13.0 mph SW20.9 kmh SW 17.9 mph28.8 kmh -338605.1 mb 0.00 in0.0 mm 0.00 in/hr0.0 mm/hr 0.00 in0.0 mm
03:17 AM 65.8°F18.8°C 39.6°F4.2°C 38% 16.1 mph SSW25.9 kmh SSW 16.1 mph25.9 kmh -338605.1 mb 0.00 in0.0 mm 0.00 in/hr0.0 mm/hr 0.00 in0.0 mm
03:22 AM 66.0°F18.9°C 40.3°F4.6°C 39% 16.1 mph SW25.9 kmh SW 10.1 mph16.3 kmh -338605.1 mb 0.00 in0.0 mm 0.00 in/hr0.0 mm/hr 0.00 in0.0 mm
03:27 AM 65.8°F18.8°C 40.1°F4.5°C 39% 13.0 mph S20.9 kmh S 8.1 mph13.0 kmh -338605.1 mb 0.00 in0.0 mm 0.00 in/hr0.0 mm/hr 0.00 in0.0 mm
03:32 AM 65.8°F18.8°C 40.8°F4.9°C 40% 10.1 mph SSW16.3 kmh SSW 8.9 mph14.3 kmh -338605.1 mb 0.00 in0.0 mm 0.00 in/hr0.0 mm/hr 0.00 in0.0 mm
03:37 AM 65.7°F18.7°C 40.6°F4.8°C 40% 10.1 mph SW16.3 kmh SW 12.1 mph19.5 kmh -338605.1 mb 0.00 in0.0 mm 0.00 in/hr0.0 mm/hr 0.00 in0.0 mm
03:42 AM 65.5°F18.6°C 41.2°F5.1°C 41% 12.1 mph W19.5 kmh W 10.1 mph16.3 kmh -338605.1 mb 0.00 in0.0 mm 0.00 in/hr0.0 mm/hr 0.00 in0.0 mm
03:47 AM 65.5°F18.6°C 41.2°F5.1°C 41% 14.1 mph SSW22.7 kmh SSW 10.1 mph16.3 kmh -338605.1 mb 0.00 in0.0 mm 0.00 in/hr0.0 mm/hr 0.00 in0.0 mm
03:52 AM 65.1°F18.4°C 40.8°F4.9°C 41% 14.1 mph SSW22.7 kmh SSW 13.0 mph20.9 kmh -338605.1 mb 0.00 in0.0 mm 0.00 in/hr0.0 mm/hr 0.00 in0.0 mm
03:57 AM 65.1°F18.4°C 40.8°F4.9°C 41% 14.1 mph SSW22.7 kmh SSW 6.9 mph11.1 kmh -338605.1 mb 0.00 in0.0 mm 0.00 in/hr0.0 mm/hr 0.00 in0.0 mm
04:02 AM 65.1°F18.4°C 41.5°F5.3°C 42% 13.0 mph WSW20.9 kmh WSW 10.1 mph16.3 kmh -338605.1 mb 0.00 in0.0 mm 0.00 in/hr0.0 mm/hr 0.00 in0.0 mm
04:07 AM 65.1°F18.4°C 41.5°F5.3°C 42% 12.1 mph SW19.5 kmh SW 12.1 mph19.5 kmh -338605.1 mb 0.00 in0.0 mm 0.00 in/hr0.0 mm/hr 0.00 in0.0 mm
04:12 AM 64.9°F18.3°C 41.4°F5.2°C 42% 13.0 mph WSW20.9 kmh WSW 13.0 mph20.9 kmh -338605.1 mb 0.00 in0.0 mm 0.00 in/hr0.0 mm/hr 0.00 in0.0 mm
04:17 AM 64.9°F18.3°C 41.9°F5.5°C 43% 14.1 mph SW22.7 kmh SW 11.0 mph17.7 kmh -338605.1 mb 0.00 in0.0 mm 0.00 in/hr0.0 mm/hr 0.00 in0.0 mm
04:22 AM 64.8°F18.2°C 42.3°F5.7°C 44% 14.1 mph SW22.7 kmh SW 21.0 mph33.8 kmh -338605.1 mb 0.00 in0.0 mm 0.00 in/hr0.0 mm/hr 0.00 in0.0 mm
04:27 AM 64.8°F18.2°C 41.7°F5.4°C 43% 15.0 mph SW24.1 kmh SW 17.0 mph27.4 kmh -338605.1 mb 0.00 in0.0 mm 0.00 in/hr0.0 mm/hr 0.00 in0.0 mm
04:32 AM 64.6°F18.1°C 42.3°F5.7°C 44% 14.1 mph SW22.7 kmh SW 8.9 mph14.3 kmh -338605.1 mb 0.00 in0.0 mm 0.00 in/hr0.0 mm/hr 0.00 in0.0 mm
04:37 AM 64.6°F18.1°C 42.3°F5.7°C 44% 14.1 mph SW22.7 kmh SW 14.1 mph22.7 kmh -338605.1 mb 0.00 in0.0 mm 0.00 in/hr0.0 mm/hr 0.00 in0.0 mm
04:42 AM 64.4°F18.0°C 42.1°F5.6°C 44% 14.1 mph SW22.7 kmh SW 17.0 mph27.4 kmh -338605.1 mb 0.00 in0.0 mm 0.00 in/hr0.0 mm/hr 0.00 in0.0 mm
04:47 AM 64.2°F17.9°C 41.9°F5.5°C 44% 14.1 mph WSW22.7 kmh WSW 11.0 mph17.7 kmh -338605.1 mb 0.00 in0.0 mm 0.00 in/hr0.0 mm/hr 0.00 in0.0 mm
04:52 AM 64.2°F17.9°C 41.9°F5.5°C 44% 13.0 mph SW20.9 kmh SW 6.0 mph9.7 kmh -338605.1 mb 0.00 in0.0 mm 0.00 in/hr0.0 mm/hr 0.00 in0.0 mm
04:57 AM 64.2°F17.9°C 41.9°F5.5°C 44% 12.1 mph WSW19.5 kmh WSW 6.0 mph9.7 kmh -338605.1 mb 0.00 in0.0 mm 0.00 in/hr0.0 mm/hr 0.00 in0.0 mm
05:02 AM 64.2°F17.9°C 41.9°F5.5°C 44% 12.1 mph SSW19.5 kmh SSW 8.1 mph13.0 kmh -338605.1 mb 0.00 in0.0 mm 0.00 in/hr0.0 mm/hr 0.00 in0.0 mm
05:07 AM 64.2°F17.9°C 41.9°F5.5°C 44% 11.0 mph SSW17.7 kmh SSW 8.9 mph14.3 kmh -338605.1 mb 0.00 in0.0 mm 0.00 in/hr0.0 mm/hr 0.00 in0.0 mm
05:12 AM 64.2°F17.9°C 42.4°F5.8°C 45% 11.0 mph SW17.7 kmh SW 8.9 mph14.3 kmh -338605.1 mb 0.00 in0.0 mm 0.00 in/hr0.0 mm/hr 0.00 in0.0 mm
05:17 AM 64.0°F17.8°C 42.8°F6.0°C 46% 13.0 mph WSW20.9 kmh WSW 16.1 mph25.9 kmh -338605.1 mb 0.00 in0.0 mm 0.00 in/hr0.0 mm/hr 0.00 in0.0 mm
05:22 AM 63.9°F17.7°C 43.2°F6.2°C 47% 13.0 mph SW20.9 kmh SW 11.0 mph17.7 kmh -338605.1 mb 0.00 in0.0 mm 0.00 in/hr0.0 mm/hr 0.00 in0.0 mm
05:27 AM 63.7°F17.6°C 43.2°F6.2°C 47% 12.1 mph SW19.5 kmh SW 13.0 mph20.9 kmh -338605.1 mb 0.00 in0.0 mm 0.00 in/hr0.0 mm/hr 0.00 in0.0 mm
05:32 AM 63.3°F17.4°C 42.8°F6.0°C 47% 11.0 mph SW17.7 kmh SW 12.1 mph19.5 kmh -338605.1 mb 0.00 in0.0 mm 0.00 in/hr0.0 mm/hr 0.00 in0.0 mm
05:37 AM 63.1°F17.3°C 42.6°F5.9°C 47% 8.9 mph SW14.3 kmh SW 8.9 mph14.3 kmh -338605.1 mb 0.00 in0.0 mm 0.00 in/hr0.0 mm/hr 0.00 in0.0 mm
05:42 AM 63.0°F17.2°C 42.4°F5.8°C 47% 8.9 mph SW14.3 kmh SW 6.9 mph11.1 kmh -338605.1 mb 0.00 in0.0 mm 0.00 in/hr0.0 mm/hr 0.00 in0.0 mm
05:47 AM 63.0°F17.2°C 43.0°F6.1°C 48% 8.9 mph SSW14.3 kmh SSW 8.1 mph13.0 kmh -338605.1 mb 0.00 in0.0 mm 0.00 in/hr0.0 mm/hr 0.00 in0.0 mm
05:52 AM 62.8°F17.1°C 43.3°F6.3°C 49% 10.1 mph SW16.3 kmh SW 8.1 mph13.0 kmh -338605.1 mb 0.00 in0.0 mm 0.00 in/hr0.0 mm/hr 0.00 in0.0 mm
05:57 AM 63.0°F17.2°C 42.4°F5.8°C 47% 11.0 mph SSW17.7 kmh SSW 6.9 mph11.1 kmh -338605.1 mb 0.00 in0.0 mm 0.00 in/hr0.0 mm/hr 0.00 in0.0 mm
06:02 AM 63.0°F17.2°C 42.4°F5.8°C 47% 12.1 mph SW19.5 kmh SW 12.1 mph19.5 kmh -338605.1 mb 0.00 in0.0 mm 0.00 in/hr0.0 mm/hr 0.00 in0.0 mm
06:07 AM 63.0°F17.2°C 42.4°F5.8°C 47% 11.0 mph SW17.7 kmh SW 4.0 mph6.4 kmh -338605.1 mb 0.00 in0.0 mm 0.00 in/hr0.0 mm/hr 0.00 in0.0 mm
06:12 AM 62.8°F17.1°C 42.3°F5.7°C 47% 8.9 mph WSW14.3 kmh WSW 6.9 mph11.1 kmh -338605.1 mb 0.00 in0.0 mm 0.00 in/hr0.0 mm/hr 0.00 in0.0 mm
06:17 AM 62.6°F17.0°C 42.6°F5.9°C 48% 8.1 mph W13.0 kmh W 6.0 mph9.7 kmh -338605.1 mb 0.00 in0.0 mm 0.00 in/hr0.0 mm/hr 0.00 in0.0 mm
06:22 AM 62.4°F16.9°C 42.4°F5.8°C 48% 8.1 mph SW13.0 kmh SW 4.0 mph6.4 kmh -338605.1 mb 0.00 in0.0 mm 0.00 in/hr0.0 mm/hr 0.00 in0.0 mm
06:27 AM 62.1°F16.7°C 42.1°F5.6°C 48% 8.9 mph SW14.3 kmh SW 15.0 mph24.1 kmh -338605.1 mb 0.00 in0.0 mm 0.00 in/hr0.0 mm/hr 0.00 in0.0 mm
06:32 AM 61.9°F16.6°C 43.5°F6.4°C 51% 12.1 mph SSW19.5 kmh SSW 12.1 mph19.5 kmh -338605.1 mb 0.00 in0.0 mm 0.00 in/hr0.0 mm/hr 0.00 in0.0 mm
06:37 AM 61.9°F16.6°C 43.0°F6.1°C 50% 13.0 mph SW20.9 kmh SW 6.9 mph11.1 kmh -338605.1 mb 0.00 in0.0 mm 0.00 in/hr0.0 mm/hr 0.00 in0.0 mm
06:42 AM 61.7°F16.5°C 42.3°F5.7°C 49% 14.1 mph SW22.7 kmh SW 21.9 mph35.2 kmh -338605.1 mb 0.00 in0.0 mm 0.00 in/hr0.0 mm/hr 0.00 in0.0 mm
06:47 AM 61.9°F16.6°C 41.9°F5.5°C 48% 15.0 mph SW24.1 kmh SW 8.1 mph13.0 kmh -338605.1 mb 0.00 in0.0 mm 0.00 in/hr0.0 mm/hr 0.00 in0.0 mm
06:52 AM 61.9°F16.6°C 42.4°F5.8°C 49% 12.1 mph SSW19.5 kmh SSW 8.1 mph13.0 kmh -338605.1 mb 0.00 in0.0 mm 0.00 in/hr0.0 mm/hr 0.00 in0.0 mm
06:57 AM 61.5°F16.4°C 42.6°F5.9°C 50% 8.9 mph SSW14.3 kmh SSW 6.0 mph9.7 kmh -338605.1 mb 0.00 in0.0 mm 0.00 in/hr0.0 mm/hr 0.00 in0.0 mm
07:02 AM 61.2°F16.2°C 42.4°F5.8°C 50% 8.1 mph SSW13.0 kmh SSW 6.0 mph9.7 kmh -338605.1 mb 0.00 in0.0 mm 0.00 in/hr0.0 mm/hr 0.00 in0.0 mm
07:07 AM 61.0°F16.1°C 42.8°F6.0°C 51% 10.1 mph SW16.3 kmh SW 15.0 mph24.1 kmh -338605.1 mb 0.00 in0.0 mm 0.00 in/hr0.0 mm/hr 0.00 in0.0 mm
07:12 AM 61.2°F16.2°C 43.0°F6.1°C 51% 10.1 mph SSW16.3 kmh SSW 8.9 mph14.3 kmh -338605.1 mb 0.00 in0.0 mm 0.00 in/hr0.0 mm/hr 0.00 in0.0 mm
07:17 AM 61.3°F16.3°C 42.1°F5.6°C 49% 8.9 mph S14.3 kmh S 2.9 mph4.7 kmh -338605.1 mb 0.00 in0.0 mm 0.00 in/hr0.0 mm/hr 0.00 in0.0 mm
07:22 AM 61.3°F16.3°C 41.5°F5.3°C 48% 6.0 mph SW9.7 kmh SW 10.1 mph16.3 kmh -338605.1 mb 0.00 in0.0 mm 0.00 in/hr0.0 mm/hr 0.00 in0.0 mm
07:27 AM 61.5°F16.4°C 42.3°F5.7°C 49% 6.0 mph S9.7 kmh S 8.1 mph13.0 kmh -338605.1 mb 0.00 in0.0 mm 0.00 in/hr0.0 mm/hr 0.00 in0.0 mm
07:32 AM 61.5°F16.4°C 42.3°F5.7°C 49% 8.1 mph SW13.0 kmh SW 8.1 mph13.0 kmh -338605.1 mb 0.00 in0.0 mm 0.00 in/hr0.0 mm/hr 0.00 in0.0 mm
07:37 AM 61.7°F16.5°C 41.9°F5.5°C 48% 8.9 mph S14.3 kmh S 8.9 mph14.3 kmh -338605.1 mb 0.00 in0.0 mm 0.00 in/hr0.0 mm/hr 0.00 in0.0 mm
07:42 AM 61.9°F16.6°C 42.4°F5.8°C 49% 8.1 mph SSW13.0 kmh SSW 4.9 mph7.9 kmh -338605.1 mb 0.00 in0.0 mm 0.00 in/hr0.0 mm/hr 0.00 in0.0 mm
07:47 AM 61.9°F16.6°C 42.4°F5.8°C 49% 8.1 mph SW13.0 kmh SW 10.1 mph16.3 kmh -338605.1 mb 0.00 in0.0 mm 0.00 in/hr0.0 mm/hr 0.00 in0.0 mm
07:52 AM 61.9°F16.6°C 42.4°F5.8°C 49% 8.9 mph WSW14.3 kmh WSW 10.1 mph16.3 kmh -338605.1 mb 0.00 in0.0 mm 0.00 in/hr0.0 mm/hr 0.00 in0.0 mm
07:57 AM 62.1°F16.7°C 42.1°F5.6°C 48% 12.1 mph SW19.5 kmh SW 10.1 mph16.3 kmh -338605.1 mb 0.00 in0.0 mm 0.00 in/hr0.0 mm/hr 0.00 in0.0 mm
08:02 AM 62.2°F16.8°C 42.3°F5.7°C 48% 13.0 mph SW20.9 kmh SW 6.9 mph11.1 kmh -338605.1 mb 0.00 in0.0 mm 0.00 in/hr0.0 mm/hr 0.00 in0.0 mm
08:07 AM 62.4°F16.9°C 41.9°F5.5°C 47% 11.0 mph SW17.7 kmh SW 10.1 mph16.3 kmh -338605.1 mb 0.00 in0.0 mm 0.00 in/hr0.0 mm/hr 0.00 in0.0 mm
08:12 AM 62.8°F17.1°C 42.8°F6.0°C 48% 10.1 mph SSW16.3 kmh SSW 10.1 mph16.3 kmh -338605.1 mb 0.00 in0.0 mm 0.00 in/hr0.0 mm/hr 0.00 in0.0 mm
08:17 AM 63.0°F17.2°C 42.4°F5.8°C 47% 8.9 mph SW14.3 kmh SW 6.9 mph11.1 kmh -338605.1 mb 0.00 in0.0 mm 0.00 in/hr0.0 mm/hr 0.00 in0.0 mm
08:22 AM 63.3°F17.4°C 42.3°F5.7°C 46% 8.9 mph SW14.3 kmh SW 8.9 mph14.3 kmh -338605.1 mb 0.00 in0.0 mm 0.00 in/hr0.0 mm/hr 0.00 in0.0 mm
08:27 AM 63.9°F17.7°C 42.6°F5.9°C 46% 10.1 mph SW16.3 kmh SW 6.9 mph11.1 kmh -338605.1 mb 0.00 in0.0 mm 0.00 in/hr0.0 mm/hr 0.00 in0.0 mm
08:32 AM 64.0°F17.8°C 42.8°F6.0°C 46% 11.0 mph SW17.7 kmh SW 17.0 mph27.4 kmh -338605.1 mb 0.00 in0.0 mm 0.00 in/hr0.0 mm/hr 0.00 in0.0 mm
08:37 AM 64.6°F18.1°C 42.8°F6.0°C 45% 10.1 mph S16.3 kmh S 4.9 mph7.9 kmh -338605.1 mb 0.00 in0.0 mm 0.00 in/hr0.0 mm/hr 0.00 in0.0 mm
08:42 AM 64.9°F18.3°C 42.4°F5.8°C 44% 8.9 mph SW14.3 kmh SW 12.1 mph19.5 kmh -338605.1 mb 0.00 in0.0 mm 0.00 in/hr0.0 mm/hr 0.00 in0.0 mm
08:47 AM 65.5°F18.6°C 43.0°F6.1°C 44% 8.9 mph SW14.3 kmh SW 14.1 mph22.7 kmh -338605.1 mb 0.00 in0.0 mm 0.00 in/hr0.0 mm/hr 0.00 in0.0 mm
08:52 AM 65.7°F18.7°C 42.6°F5.9°C 43% 10.1 mph SW16.3 kmh SW 8.9 mph14.3 kmh -338605.1 mb 0.00 in0.0 mm 0.00 in/hr0.0 mm/hr 0.00 in0.0 mm
08:57 AM 65.5°F18.6°C 39.2°F4.0°C 38% 8.9 mph WNW14.3 kmh WNW 8.9 mph14.3 kmh -338605.1 mb 0.00 in0.0 mm 0.00 in/hr0.0 mm/hr 0.00 in0.0 mm
09:02 AM 64.8°F18.2°C 39.2°F4.0°C 39% 8.1 mph W13.0 kmh W 8.9 mph14.3 kmh -338605.1 mb 0.00 in0.0 mm 0.00 in/hr0.0 mm/hr 0.00 in0.0 mm
09:07 AM 64.4°F18.0°C 39.6°F4.2°C 40% 8.1 mph WNW13.0 kmh WNW 8.1 mph13.0 kmh -338605.1 mb 0.00 in0.0 mm 0.00 in/hr0.0 mm/hr 0.00 in0.0 mm
09:12 AM 64.2°F17.9°C 39.4°F4.1°C 40% 6.9 mph W11.1 kmh W 6.9 mph11.1 kmh -338605.1 mb 0.00 in0.0 mm 0.00 in/hr0.0 mm/hr 0.00 in0.0 mm
09:17 AM 64.2°F17.9°C 39.4°F4.1°C 40% 4.9 mph WSW7.9 kmh WSW 4.9 mph7.9 kmh -338605.1 mb 0.00 in0.0 mm 0.00 in/hr0.0 mm/hr 0.00 in0.0 mm
09:22 AM 64.6°F18.1°C 39.0°F3.9°C 39% 4.9 mph W7.9 kmh W 2.9 mph4.7 kmh -338605.1 mb 0.00 in0.0 mm 0.00 in/hr0.0 mm/hr 0.00 in0.0 mm
09:27 AM 64.8°F18.2°C 39.2°F4.0°C 39% 4.0 mph W6.4 kmh W -- -338605.1 mb 0.00 in0.0 mm 0.00 in/hr0.0 mm/hr 0.00 in0.0 mm
09:32 AM 64.9°F18.3°C 39.4°F4.1°C 39% 2.0 mph W3.2 kmh W 4.0 mph6.4 kmh -338605.1 mb 0.00 in0.0 mm 0.00 in/hr0.0 mm/hr 0.00 in0.0 mm
09:37 AM 65.7°F18.7°C 38.7°F3.7°C 37% 2.0 mph WSW3.2 kmh WSW 0.9 mph1.4 kmh -338605.1 mb 0.00 in0.0 mm 0.00 in/hr0.0 mm/hr 0.00 in0.0 mm
09:42 AM 66.0°F18.9°C 39.0°F3.9°C 37% 2.0 mph WSW3.2 kmh WSW 2.9 mph4.7 kmh -338605.1 mb 0.00 in0.0 mm 0.00 in/hr0.0 mm/hr 0.00 in0.0 mm
09:47 AM 66.7°F19.3°C 39.0°F3.9°C 36% 2.0 mph NW3.2 kmh NW 4.9 mph7.9 kmh -338605.1 mb 0.00 in0.0 mm 0.00 in/hr0.0 mm/hr 0.00 in0.0 mm
09:52 AM 67.3°F19.6°C 38.7°F3.7°C 35% 4.0 mph NW6.4 kmh NW 4.0 mph6.4 kmh -338605.1 mb 0.00 in0.0 mm 0.00 in/hr0.0 mm/hr 0.00 in0.0 mm
09:57 AM 67.6°F19.8°C 39.0°F3.9°C 35% 4.0 mph W6.4 kmh W 2.9 mph4.7 kmh -338605.1 mb 0.00 in0.0 mm 0.00 in/hr0.0 mm/hr 0.00 in0.0 mm
10:02 AM 68.4°F20.2°C 41.7°F5.4°C 38% 4.0 mph WSW6.4 kmh WSW 8.1 mph13.0 kmh -338605.1 mb 0.00 in0.0 mm 0.00 in/hr0.0 mm/hr 0.00 in0.0 mm
10:07 AM 69.3°F20.7°C 41.2°F5.1°C 36% 6.9 mph SW11.1 kmh SW 12.1 mph19.5 kmh -338605.1 mb 0.00 in0.0 mm 0.00 in/hr0.0 mm/hr 0.00 in0.0 mm
10:12 AM 70.0°F21.1°C 38.8°F3.8°C 32% 11.0 mph W17.7 kmh W 6.0 mph9.7 kmh -338605.1 mb 0.00 in0.0 mm 0.00 in/hr0.0 mm/hr 0.00 in0.0 mm
10:17 AM 70.3°F21.3°C 39.0°F3.9°C 32% 10.1 mph W16.3 kmh W 6.0 mph9.7 kmh -338605.1 mb 0.00 in0.0 mm 0.00 in/hr0.0 mm/hr 0.00 in0.0 mm
10:22 AM 70.5°F21.4°C 41.5°F5.3°C 35% 6.0 mph WSW9.7 kmh WSW 2.9 mph4.7 kmh -338605.1 mb 0.00 in0.0 mm 0.00 in/hr0.0 mm/hr 0.00 in0.0 mm
10:27 AM 70.7°F21.5°C 41.7°F5.4°C 35% 4.0 mph S6.4 kmh S 4.0 mph6.4 kmh -338605.1 mb 0.00 in0.0 mm 0.00 in/hr0.0 mm/hr 0.00 in0.0 mm
10:32 AM 70.9°F21.6°C 41.9°F5.5°C 35% 2.9 mph SSE4.7 kmh SSE 4.9 mph7.9 kmh -338605.1 mb 0.00 in0.0 mm 0.00 in/hr0.0 mm/hr 0.00 in0.0 mm
10:37 AM 71.4°F21.9°C 41.5°F5.3°C 34% 4.0 mph SW6.4 kmh SW 2.9 mph4.7 kmh -338605.1 mb 0.00 in0.0 mm 0.00 in/hr0.0 mm/hr 0.00 in0.0 mm
10:42 AM 71.8°F22.1°C 41.9°F5.5°C 34% 4.9 mph S7.9 kmh S 2.0 mph3.2 kmh -338605.1 mb 0.00 in0.0 mm 0.00 in/hr0.0 mm/hr 0.00 in0.0 mm
10:47 AM 72.0°F22.2°C 42.1°F5.6°C 34% 4.0 mph W6.4 kmh W 4.9 mph7.9 kmh -338605.1 mb 0.00 in0.0 mm 0.00 in/hr0.0 mm/hr 0.00 in0.0 mm
10:52 AM 72.0°F22.2°C 41.4°F5.2°C 33% 4.9 mph W7.9 kmh W -- -338605.1 mb 0.00 in0.0 mm 0.00 in/hr0.0 mm/hr 0.00 in0.0 mm
10:57 AM 72.1°F22.3°C 42.3°F5.7°C 34% 2.9 mph S4.7 kmh S 0.9 mph1.4 kmh -338605.1 mb 0.00 in0.0 mm 0.00 in/hr0.0 mm/hr 0.00 in0.0 mm
11:02 AM 72.3°F22.4°C 41.5°F5.3°C 33% 2.0 mph SW3.2 kmh SW -- -338605.1 mb 0.00 in0.0 mm 0.00 in/hr0.0 mm/hr 0.00 in0.0 mm
11:07 AM 72.7°F22.6°C 41.2°F5.1°C 32% 0.9 mph WSW1.4 kmh WSW 2.0 mph3.2 kmh -338605.1 mb 0.00 in0.0 mm 0.00 in/hr0.0 mm/hr 0.00 in0.0 mm
11:12 AM 73.2°F22.9°C 39.9°F4.4°C 30% 0.9 mph NW1.4 kmh NW -- -338605.1 mb 0.00 in0.0 mm 0.00 in/hr0.0 mm/hr 0.00 in0.0 mm
11:17 AM 73.8°F23.2°C 40.5°F4.7°C 30% 2.0 mph N3.2 kmh N 4.9 mph7.9 kmh -338605.1 mb 0.00 in0.0 mm 0.00 in/hr0.0 mm/hr 0.00 in0.0 mm
11:22 AM 73.9°F23.3°C 40.5°F4.7°C 30% 2.9 mph 4.7 kmh 6.0 mph9.7 kmh -338605.1 mb 0.00 in0.0 mm 0.00 in/hr0.0 mm/hr 0.00 in0.0 mm
11:27 AM 73.8°F23.2°C 40.5°F4.7°C 30% 4.9 mph NE7.9 kmh NE 10.1 mph16.3 kmh -338605.1 mb 0.00 in0.0 mm 0.00 in/hr0.0 mm/hr 0.00 in0.0 mm
11:32 AM 74.1°F23.4°C 41.5°F5.3°C 31% 6.9 mph E11.1 kmh E 11.0 mph17.7 kmh -338605.1 mb 0.00 in0.0 mm 0.00 in/hr0.0 mm/hr 0.00 in0.0 mm
11:37 AM 74.5°F23.6°C 41.9°F5.5°C 31% 10.1 mph ENE16.3 kmh ENE 4.9 mph7.9 kmh -338605.1 mb 0.00 in0.0 mm 0.00 in/hr0.0 mm/hr 0.00 in0.0 mm
11:42 AM 74.7°F23.7°C 42.1°F5.6°C 31% 10.1 mph E16.3 kmh E 6.9 mph11.1 kmh -338605.1 mb 0.00 in0.0 mm 0.00 in/hr0.0 mm/hr 0.00 in0.0 mm
11:47 AM 74.8°F23.8°C 41.4°F5.2°C 30% 8.9 mph E14.3 kmh E 6.9 mph11.1 kmh -338605.1 mb 0.00 in0.0 mm 0.00 in/hr0.0 mm/hr 0.00 in0.0 mm
11:52 AM 75.2°F24.0°C 41.7°F5.4°C 30% 6.9 mph ENE11.1 kmh ENE 8.1 mph13.0 kmh -338605.1 mb 0.00 in0.0 mm 0.00 in/hr0.0 mm/hr 0.00 in0.0 mm
11:57 AM 75.4°F24.1°C 41.7°F5.4°C 30% 6.9 mph NE11.1 kmh NE 8.1 mph13.0 kmh -338605.1 mb 0.00 in0.0 mm 0.00 in/hr0.0 mm/hr 0.00 in0.0 mm
12:02 PM 75.4°F24.1°C 41.7°F5.4°C 30% 6.9 mph NNE11.1 kmh NNE 6.9 mph11.1 kmh -338605.1 mb 0.00 in0.0 mm 0.00 in/hr0.0 mm/hr 0.00 in0.0 mm
12:07 PM 75.7°F24.3°C 41.2°F5.1°C 29% 8.1 mph ENE13.0 kmh ENE 6.9 mph11.1 kmh -338605.1 mb 0.00 in0.0 mm 0.00 in/hr0.0 mm/hr 0.00 in0.0 mm
12:12 PM 75.7°F24.3°C 41.2°F5.1°C 29% 8.1 mph ENE13.0 kmh ENE 4.9 mph7.9 kmh -338605.1 mb 0.00 in0.0 mm 0.00 in/hr0.0 mm/hr 0.00 in0.0 mm
12:17 PM 75.9°F24.4°C 41.4°F5.2°C 29% 6.9 mph E11.1 kmh E 8.1 mph13.0 kmh -338605.1 mb 0.00 in0.0 mm 0.00 in/hr0.0 mm/hr 0.00 in0.0 mm
12:22 PM 76.5°F24.7°C 41.0°F5.0°C 28% 8.1 mph ESE13.0 kmh ESE 6.9 mph11.1 kmh -338605.1 mb 0.00 in0.0 mm 0.00 in/hr0.0 mm/hr 0.00 in0.0 mm
12:27 PM 76.6°F24.8°C 41.2°F5.1°C 28% 6.9 mph E11.1 kmh E 6.9 mph11.1 kmh -338605.1 mb 0.00 in0.0 mm 0.00 in/hr0.0 mm/hr 0.00 in0.0 mm
12:32 PM 76.6°F24.8°C 41.2°F5.1°C 28% 6.0 mph E9.7 kmh E 6.0 mph9.7 kmh -338605.1 mb 0.00 in0.0 mm 0.00 in/hr0.0 mm/hr 0.00 in0.0 mm
12:37 PM 76.8°F24.9°C 41.2°F5.1°C 28% 6.9 mph E11.1 kmh E 6.9 mph11.1 kmh -338605.1 mb 0.00 in0.0 mm 0.00 in/hr0.0 mm/hr 0.00 in0.0 mm
12:42 PM 77.0°F25.0°C 41.4°F5.2°C 28% 6.0 mph E9.7 kmh E 6.0 mph9.7 kmh -338605.1 mb 0.00 in0.0 mm 0.00 in/hr0.0 mm/hr 0.00 in0.0 mm
12:47 PM 77.2°F25.1°C 40.6°F4.8°C 27% 6.0 mph E9.7 kmh E 6.0 mph9.7 kmh -338605.1 mb 0.00 in0.0 mm 0.00 in/hr0.0 mm/hr 0.00 in0.0 mm
12:52 PM 77.5°F25.3°C 39.9°F4.4°C 26% 4.0 mph ENE6.4 kmh ENE 6.9 mph11.1 kmh -338605.1 mb 0.00 in0.0 mm 0.00 in/hr0.0 mm/hr 0.00 in0.0 mm
12:57 PM 77.7°F25.4°C 38.1°F3.4°C 24% 4.9 mph ESE7.9 kmh ESE 4.0 mph6.4 kmh -338605.1 mb 0.00 in0.0 mm 0.00 in/hr0.0 mm/hr 0.00 in0.0 mm
01:02 PM 78.1°F25.6°C 36.1°F2.3°C 22% 4.9 mph NE7.9 kmh NE 4.0 mph6.4 kmh -338605.1 mb 0.00 in0.0 mm 0.00 in/hr0.0 mm/hr 0.00 in0.0 mm
01:07 PM 78.1°F25.6°C 34.9°F1.6°C 21% 4.0 mph ENE6.4 kmh ENE 4.0 mph6.4 kmh -338605.1 mb 0.00 in0.0 mm 0.00 in/hr0.0 mm/hr 0.00 in0.0 mm
01:12 PM 77.9°F25.5°C 33.6°F0.9°C 20% 2.0 mph ENE3.2 kmh ENE 0.9 mph1.4 kmh -338605.1 mb 0.00 in0.0 mm 0.00 in/hr0.0 mm/hr 0.00 in0.0 mm
01:17 PM 78.1°F25.6°C 34.9°F1.6°C 21% 0.9 mph ENE1.4 kmh ENE 2.9 mph4.7 kmh -338605.1 mb 0.00 in0.0 mm 0.00 in/hr0.0 mm/hr 0.00 in0.0 mm
01:22 PM 78.1°F25.6°C 34.9°F1.6°C 21% 0.9 mph NE1.4 kmh NE 2.9 mph4.7 kmh -338605.1 mb 0.00 in0.0 mm 0.00 in/hr0.0 mm/hr 0.00 in0.0 mm
01:27 PM 78.3°F25.7°C 35.1°F1.7°C 21% 2.0 mph NE3.2 kmh NE 4.0 mph6.4 kmh -338605.1 mb 0.00 in0.0 mm 0.00 in/hr0.0 mm/hr 0.00 in0.0 mm
01:32 PM 78.3°F25.7°C 32.5°F0.3°C 19% 2.9 mph ESE4.7 kmh ESE 2.9 mph4.7 kmh -338605.1 mb 0.00 in0.0 mm 0.00 in/hr0.0 mm/hr 0.00 in0.0 mm
01:37 PM 78.4°F25.8°C 31.5°F-0.3°C 18% 2.0 mph ESE3.2 kmh ESE 0.9 mph1.4 kmh -338605.1 mb 0.00 in0.0 mm 0.00 in/hr0.0 mm/hr 0.00 in0.0 mm
01:42 PM 78.4°F25.8°C 31.5°F-0.3°C 18% 0.9 mph NNE1.4 kmh NNE 2.0 mph3.2 kmh -338605.1 mb 0.00 in0.0 mm 0.00 in/hr0.0 mm/hr 0.00 in0.0 mm
01:47 PM 78.4°F25.8°C 34.0°F1.1°C 20% 2.0 mph W3.2 kmh W 6.0 mph9.7 kmh -338605.1 mb 0.00 in0.0 mm 0.00 in/hr0.0 mm/hr 0.00 in0.0 mm
01:52 PM 78.4°F25.8°C 32.7°F0.4°C 19% 2.0 mph W3.2 kmh W 2.9 mph4.7 kmh -338605.1 mb 0.00 in0.0 mm 0.00 in/hr0.0 mm/hr 0.00 in0.0 mm
01:57 PM 78.3°F25.7°C 32.5°F0.3°C 19% 2.9 mph NW4.7 kmh NW 2.9 mph4.7 kmh -338605.1 mb 0.00 in0.0 mm 0.00 in/hr0.0 mm/hr 0.00 in0.0 mm
02:02 PM 78.1°F25.6°C 33.8°F1.0°C 20% 2.9 mph NW4.7 kmh NW 4.0 mph6.4 kmh -338605.1 mb 0.00 in0.0 mm 0.00 in/hr0.0 mm/hr 0.00 in0.0 mm
02:07 PM 78.3°F25.7°C 35.1°F1.7°C 21% 2.9 mph NW4.7 kmh NW 0.9 mph1.4 kmh -338605.1 mb 0.00 in0.0 mm 0.00 in/hr0.0 mm/hr 0.00 in0.0 mm
02:12 PM 78.4°F25.8°C 35.2°F1.8°C 21% 2.9 mph NW4.7 kmh NW 0.9 mph1.4 kmh -338605.1 mb 0.00 in0.0 mm 0.00 in/hr0.0 mm/hr 0.00 in0.0 mm
02:17 PM 78.6°F25.9°C 37.8°F3.2°C 23% 2.0 mph NE3.2 kmh NE 2.9 mph4.7 kmh -338605.1 mb 0.00 in0.0 mm 0.00 in/hr0.0 mm/hr 0.00 in0.0 mm
02:22 PM 78.8°F26.0°C 37.9°F3.3°C 23% 2.9 mph ENE4.7 kmh ENE 4.0 mph6.4 kmh -338605.1 mb 0.00 in0.0 mm 0.00 in/hr0.0 mm/hr 0.00 in0.0 mm
02:27 PM 79.0°F26.1°C 37.9°F3.3°C 23% 2.9 mph ENE4.7 kmh ENE 2.0 mph3.2 kmh -338605.1 mb 0.00 in0.0 mm 0.00 in/hr0.0 mm/hr 0.00 in0.0 mm
02:32 PM 79.0°F26.1°C 36.9°F2.7°C 22% 4.0 mph NE6.4 kmh NE 0.9 mph1.4 kmh -338605.1 mb 0.00 in0.0 mm 0.00 in/hr0.0 mm/hr 0.00 in0.0 mm
02:37 PM 79.0°F26.1°C 36.9°F2.7°C 22% 2.0 mph NE3.2 kmh NE 4.0 mph6.4 kmh -338605.1 mb 0.00 in0.0 mm 0.00 in/hr0.0 mm/hr 0.00 in0.0 mm
02:42 PM 79.0°F26.1°C 36.9°F2.7°C 22% 2.0 mph ENE3.2 kmh ENE 4.0 mph6.4 kmh -338605.1 mb 0.00 in0.0 mm 0.00 in/hr0.0 mm/hr 0.00 in0.0 mm
02:47 PM 79.0°F26.1°C 34.5°F1.4°C 20% 2.0 mph ENE3.2 kmh ENE -- -338605.1 mb 0.00 in0.0 mm 0.00 in/hr0.0 mm/hr 0.00 in0.0 mm
02:52 PM 79.2°F26.2°C 35.8°F2.1°C 21% 2.0 mph NE3.2 kmh NE 0.9 mph1.4 kmh -338605.1 mb 0.00 in0.0 mm 0.00 in/hr0.0 mm/hr 0.00 in0.0 mm
02:57 PM 79.2°F26.2°C 33.4°F0.8°C 19% 0.9 mph NE1.4 kmh NE -- -338605.1 mb 0.00 in0.0 mm 0.00 in/hr0.0 mm/hr 0.00 in0.0 mm
03:02 PM 79.5°F26.4°C 34.9°F1.6°C 20% 2.0 mph NE3.2 kmh NE 2.0 mph3.2 kmh -338605.1 mb 0.00 in0.0 mm 0.00 in/hr0.0 mm/hr 0.00 in0.0 mm
03:07 PM 79.3°F26.3°C 34.7°F1.5°C 20% 2.0 mph NE3.2 kmh NE 0.9 mph1.4 kmh -338605.1 mb 0.00 in0.0 mm 0.00 in/hr0.0 mm/hr 0.00 in0.0 mm
03:12 PM 79.5°F26.4°C 33.6°F0.9°C 19% 0.9 mph SE1.4 kmh SE 4.0 mph6.4 kmh -338605.1 mb 0.00 in0.0 mm 0.00 in/hr0.0 mm/hr 0.00 in0.0 mm
03:17 PM 80.1°F26.7°C 32.7°F0.4°C 18% 2.9 mph S4.7 kmh S 2.0 mph3.2 kmh -338605.1 mb 0.00 in0.0 mm 0.00 in/hr0.0 mm/hr 0.00 in0.0 mm
03:22 PM 80.2°F26.8°C 32.9°F0.5°C 18% 2.0 mph S3.2 kmh S 2.9 mph4.7 kmh -338605.1 mb 0.00 in0.0 mm 0.00 in/hr0.0 mm/hr 0.00 in0.0 mm
03:27 PM 80.4°F26.9°C 33.1°F0.6°C 18% 0.9 mph SW1.4 kmh SW 2.0 mph3.2 kmh -338605.1 mb 0.00 in0.0 mm 0.00 in/hr0.0 mm/hr 0.00 in0.0 mm
03:32 PM 80.1°F26.7°C 31.3°F-0.4°C 17% 2.0 mph SW3.2 kmh SW 2.0 mph3.2 kmh -338605.1 mb 0.00 in0.0 mm 0.00 in/hr0.0 mm/hr 0.00 in0.0 mm
03:37 PM 80.2°F26.8°C 31.5°F-0.3°C 17% 2.0 mph SW3.2 kmh SW 2.0 mph3.2 kmh -338605.1 mb 0.00 in0.0 mm 0.00 in/hr0.0 mm/hr 0.00 in0.0 mm
03:42 PM 80.2°F26.8°C 31.5°F-0.3°C 17% 2.0 mph S3.2 kmh S 4.0 mph6.4 kmh -338605.1 mb 0.00 in0.0 mm 0.00 in/hr0.0 mm/hr 0.00 in0.0 mm
03:47 PM 80.4°F26.9°C 31.6°F-0.2°C 17% 2.9 mph S4.7 kmh S -- -338605.1 mb 0.00 in0.0 mm 0.00 in/hr0.0 mm/hr 0.00 in0.0 mm
03:52 PM 80.6°F27.0°C 31.8°F-0.1°C 17% 2.0 mph E3.2 kmh E 2.0 mph3.2 kmh -338605.1 mb 0.00 in0.0 mm 0.00 in/hr0.0 mm/hr 0.00 in0.0 mm
03:57 PM 80.6°F27.0°C 31.8°F-0.1°C 17% 2.0 mph ENE3.2 kmh ENE 4.0 mph6.4 kmh -338605.1 mb 0.00 in0.0 mm 0.00 in/hr0.0 mm/hr 0.00 in0.0 mm
04:02 PM 80.8°F27.1°C 30.4°F-0.9°C 16% 4.0 mph NE6.4 kmh NE 4.0 mph6.4 kmh -338605.1 mb 0.00 in0.0 mm 0.00 in/hr0.0 mm/hr 0.00 in0.0 mm
04:07 PM 81.0°F27.2°C 30.6°F-0.8°C 16% 4.9 mph NE7.9 kmh NE 4.9 mph7.9 kmh -338605.1 mb 0.00 in0.0 mm 0.00 in/hr0.0 mm/hr 0.00 in0.0 mm
04:12 PM 80.8°F27.1°C 30.4°F-0.9°C 16% 4.0 mph NNE6.4 kmh NNE 4.0 mph6.4 kmh -338605.1 mb 0.00 in0.0 mm 0.00 in/hr0.0 mm/hr 0.00 in0.0 mm
04:17 PM 80.8°F27.1°C 30.4°F-0.9°C 16% 4.0 mph ESE6.4 kmh ESE 4.9 mph7.9 kmh -338605.1 mb 0.00 in0.0 mm 0.00 in/hr0.0 mm/hr 0.00 in0.0 mm
04:22 PM 81.0°F27.2°C 30.6°F-0.8°C 16% 4.9 mph ESE7.9 kmh ESE 4.9 mph7.9 kmh -338605.1 mb 0.00 in0.0 mm 0.00 in/hr0.0 mm/hr 0.00 in0.0 mm
04:27 PM 81.0°F27.2°C 28.9°F-1.7°C 15% 4.0 mph ESE6.4 kmh ESE 2.0 mph3.2 kmh -338605.1 mb 0.00 in0.0 mm 0.00 in/hr0.0 mm/hr 0.00 in0.0 mm
04:32 PM 80.8°F27.1°C 28.8°F-1.8°C 15% 2.9 mph ESE4.7 kmh ESE 2.9 mph4.7 kmh -338605.1 mb 0.00 in0.0 mm 0.00 in/hr0.0 mm/hr 0.00 in0.0 mm
04:37 PM 80.8°F27.1°C 30.4°F-0.9°C 16% 2.0 mph ESE3.2 kmh ESE 2.9 mph4.7 kmh -338605.1 mb 0.00 in0.0 mm 0.00 in/hr0.0 mm/hr 0.00 in0.0 mm
04:42 PM 80.8°F27.1°C 30.4°F-0.9°C 16% 2.9 mph ESE4.7 kmh ESE 0.9 mph1.4 kmh -338605.1 mb 0.00 in0.0 mm 0.00 in/hr0.0 mm/hr 0.00 in0.0 mm
04:47 PM 80.8°F27.1°C 27.1°F-2.7°C 14% 2.9 mph ENE4.7 kmh ENE 2.0 mph3.2 kmh -338605.1 mb 0.00 in0.0 mm 0.00 in/hr0.0 mm/hr 0.00 in0.0 mm
04:52 PM 80.4°F26.9°C 28.6°F-1.9°C 15% 2.0 mph ENE3.2 kmh ENE 4.0 mph6.4 kmh -338605.1 mb 0.00 in0.0 mm 0.00 in/hr0.0 mm/hr 0.00 in0.0 mm
04:57 PM 80.4°F26.9°C 28.6°F-1.9°C 15% 2.9 mph ENE4.7 kmh ENE 2.9 mph4.7 kmh -338605.1 mb 0.00 in0.0 mm 0.00 in/hr0.0 mm/hr 0.00 in0.0 mm
05:02 PM 80.4°F26.9°C 28.6°F-1.9°C 15% 2.9 mph ENE4.7 kmh ENE 2.0 mph3.2 kmh -338605.1 mb 0.00 in0.0 mm 0.00 in/hr0.0 mm/hr 0.00 in0.0 mm
05:07 PM 80.4°F26.9°C 28.6°F-1.9°C 15% 2.9 mph E4.7 kmh E 6.9 mph11.1 kmh -338605.1 mb 0.00 in0.0 mm 0.00 in/hr0.0 mm/hr 0.00 in0.0 mm
05:12 PM 80.2°F26.8°C 28.4°F-2.0°C 15% 4.0 mph E6.4 kmh E 2.0 mph3.2 kmh -338605.1 mb 0.00 in0.0 mm 0.00 in/hr0.0 mm/hr 0.00 in0.0 mm
05:17 PM 80.2°F26.8°C 26.8°F-2.9°C 14% 4.0 mph E6.4 kmh E 4.9 mph7.9 kmh -338605.1 mb 0.00 in0.0 mm 0.00 in/hr0.0 mm/hr 0.00 in0.0 mm
05:22 PM 80.1°F26.7°C 28.2°F-2.1°C 15% 2.9 mph E4.7 kmh E 4.9 mph7.9 kmh -338605.1 mb 0.00 in0.0 mm 0.00 in/hr0.0 mm/hr 0.00 in0.0 mm
05:27 PM 80.1°F26.7°C 28.2°F-2.1°C 15% 2.9 mph E4.7 kmh E 4.9 mph7.9 kmh -338605.1 mb 0.00 in0.0 mm 0.00 in/hr0.0 mm/hr 0.00 in0.0 mm
05:32 PM 80.1°F26.7°C 29.8°F-1.2°C 16% 4.0 mph SSE6.4 kmh SSE 2.0 mph3.2 kmh -338605.1 mb 0.00 in0.0 mm 0.00 in/hr0.0 mm/hr 0.00 in0.0 mm
05:37 PM 79.9°F26.6°C 31.1°F-0.5°C 17% 4.0 mph SSW6.4 kmh SSW 2.9 mph4.7 kmh -338605.1 mb 0.00 in0.0 mm 0.00 in/hr0.0 mm/hr 0.00 in0.0 mm
05:42 PM 79.5°F26.4°C 30.9°F-0.6°C 17% 4.9 mph SW7.9 kmh SW 4.0 mph6.4 kmh -338605.1 mb 0.00 in0.0 mm 0.00 in/hr0.0 mm/hr 0.00 in0.0 mm
05:47 PM 79.3°F26.3°C 30.7°F-0.7°C 17% 4.9 mph SW7.9 kmh SW 2.9 mph4.7 kmh -338605.1 mb 0.00 in0.0 mm 0.00 in/hr0.0 mm/hr 0.00 in0.0 mm
05:52 PM 79.2°F26.2°C 32.0°F0.0°C 18% 4.0 mph SSW6.4 kmh SSW 8.9 mph14.3 kmh -338605.1 mb 0.00 in0.0 mm 0.00 in/hr0.0 mm/hr 0.00 in0.0 mm
05:57 PM 78.4°F25.8°C 31.5°F-0.3°C 18% 6.0 mph SW9.7 kmh SW 6.0 mph9.7 kmh -338605.1 mb 0.00 in0.0 mm 0.00 in/hr0.0 mm/hr 0.00 in0.0 mm
06:02 PM 78.3°F25.7°C 31.3°F-0.4°C 18% 6.9 mph SW11.1 kmh SW 2.0 mph3.2 kmh -338605.1 mb 0.00 in0.0 mm 0.00 in/hr0.0 mm/hr 0.00 in0.0 mm
06:07 PM 77.9°F25.5°C 30.9°F-0.6°C 18% 6.0 mph SSW9.7 kmh SSW 2.9 mph4.7 kmh -338605.1 mb 0.00 in0.0 mm 0.00 in/hr0.0 mm/hr 0.00 in0.0 mm
06:12 PM 77.4°F25.2°C 31.8°F-0.1°C 19% 4.9 mph SSW7.9 kmh SSW 6.0 mph9.7 kmh -338605.1 mb 0.00 in0.0 mm 0.00 in/hr0.0 mm/hr 0.00 in0.0 mm
06:17 PM 76.8°F24.9°C 32.7°F0.4°C 20% 6.0 mph SW9.7 kmh SW 6.0 mph9.7 kmh -338605.1 mb 0.00 in0.0 mm 0.00 in/hr0.0 mm/hr 0.00 in0.0 mm
06:22 PM 76.3°F24.6°C 32.2°F0.1°C 20% 6.0 mph SW9.7 kmh SW 4.9 mph7.9 kmh -338605.1 mb 0.00 in0.0 mm 0.00 in/hr0.0 mm/hr 0.00 in0.0 mm
06:27 PM 75.9°F24.4°C 33.3°F0.7°C 21% 6.9 mph SW11.1 kmh SW 6.9 mph11.1 kmh -338605.1 mb 0.00 in0.0 mm 0.00 in/hr0.0 mm/hr 0.00 in0.0 mm
06:32 PM 75.6°F24.2°C 32.9°F0.5°C 21% 8.1 mph SW13.0 kmh SW 8.9 mph14.3 kmh -338605.1 mb 0.00 in0.0 mm 0.00 in/hr0.0 mm/hr 0.00 in0.0 mm
06:37 PM 75.0°F23.9°C 32.4°F0.2°C 21% 8.1 mph SSW13.0 kmh SSW 4.9 mph7.9 kmh -338605.1 mb 0.00 in0.0 mm 0.00 in/hr0.0 mm/hr 0.00 in0.0 mm
06:42 PM 74.7°F23.7°C 33.3°F0.7°C 22% 8.1 mph SW13.0 kmh SW 6.9 mph11.1 kmh -338605.1 mb 0.00 in0.0 mm 0.00 in/hr0.0 mm/hr 0.00 in0.0 mm
06:47 PM 74.1°F23.4°C 34.0°F1.1°C 23% 8.9 mph SW14.3 kmh SW 15.0 mph24.1 kmh -338605.1 mb 0.00 in0.0 mm 0.00 in/hr0.0 mm/hr 0.00 in0.0 mm
06:52 PM 73.8°F23.2°C 33.6°F0.9°C 23% 10.1 mph SW16.3 kmh SW 4.0 mph6.4 kmh -338605.1 mb 0.00 in0.0 mm 0.00 in/hr0.0 mm/hr 0.00 in0.0 mm
06:57 PM 73.6°F23.1°C 34.5°F1.4°C 24% 8.9 mph SW14.3 kmh SW 8.1 mph13.0 kmh -338605.1 mb 0.00 in0.0 mm 0.00 in/hr0.0 mm/hr 0.00 in0.0 mm
07:02 PM 73.2°F22.9°C 34.3°F1.3°C 24% 8.9 mph S14.3 kmh S 10.1 mph16.3 kmh -338605.1 mb 0.00 in0.0 mm 0.00 in/hr0.0 mm/hr 0.00 in0.0 mm
07:07 PM 73.0°F22.8°C 35.1°F1.7°C 25% 8.9 mph SSW14.3 kmh SSW 11.0 mph17.7 kmh -338605.1 mb 0.00 in0.0 mm 0.00 in/hr0.0 mm/hr 0.00 in0.0 mm
07:12 PM 72.7°F22.6°C 35.8°F2.1°C 26% 8.9 mph SSW14.3 kmh SSW 12.1 mph19.5 kmh -338605.1 mb 0.00 in0.0 mm 0.00 in/hr0.0 mm/hr 0.00 in0.0 mm
07:17 PM 72.1°F22.3°C 35.4°F1.9°C 26% 11.0 mph S17.7 kmh S 8.9 mph14.3 kmh -338605.1 mb 0.00 in0.0 mm 0.00 in/hr0.0 mm/hr 0.00 in0.0 mm
07:22 PM 72.0°F22.2°C 35.2°F1.8°C 26% 10.1 mph S16.3 kmh S 8.9 mph14.3 kmh -338605.1 mb 0.00 in0.0 mm 0.00 in/hr0.0 mm/hr 0.00 in0.0 mm
07:27 PM 71.6°F22.0°C 35.8°F2.1°C 27% 8.9 mph S14.3 kmh S 11.0 mph17.7 kmh -338605.1 mb 0.00 in0.0 mm 0.00 in/hr0.0 mm/hr 0.00 in0.0 mm
07:32 PM 71.2°F21.8°C 36.5°F2.5°C 28% 11.0 mph S17.7 kmh S 14.1 mph22.7 kmh -338605.1 mb 0.00 in0.0 mm 0.00 in/hr0.0 mm/hr 0.00 in0.0 mm
07:37 PM 71.2°F21.8°C 37.4°F3.0°C 29% 11.0 mph S17.7 kmh S 12.1 mph19.5 kmh -338605.1 mb 0.00 in0.0 mm 0.00 in/hr0.0 mm/hr 0.00 in0.0 mm
07:42 PM 70.9°F21.6°C 37.0°F2.8°C 29% 10.1 mph S16.3 kmh S 12.1 mph19.5 kmh -338605.1 mb 0.00 in0.0 mm 0.00 in/hr0.0 mm/hr 0.00 in0.0 mm
07:47 PM 70.7°F21.5°C 36.9°F2.7°C 29% 10.1 mph S16.3 kmh S 11.0 mph17.7 kmh -338605.1 mb 0.00 in0.0 mm 0.00 in/hr0.0 mm/hr 0.00 in0.0 mm
07:52 PM 70.5°F21.4°C 36.7°F2.6°C 29% 10.1 mph SW16.3 kmh SW 10.1 mph16.3 kmh -338605.1 mb 0.00 in0.0 mm 0.00 in/hr0.0 mm/hr 0.00 in0.0 mm
07:57 PM 70.3°F21.3°C 36.5°F2.5°C 29% 8.1 mph SSW13.0 kmh SSW 6.9 mph11.1 kmh -338605.1 mb 0.00 in0.0 mm 0.00 in/hr0.0 mm/hr 0.00 in0.0 mm
08:02 PM 70.0°F21.1°C 36.3°F2.4°C 29% 6.9 mph SW11.1 kmh SW 6.0 mph9.7 kmh -338605.1 mb 0.00 in0.0 mm 0.00 in/hr0.0 mm/hr 0.00 in0.0 mm
08:07 PM 69.8°F21.0°C 36.1°F2.3°C 29% 8.1 mph S13.0 kmh S 8.1 mph13.0 kmh -338605.1 mb 0.00 in0.0 mm 0.00 in/hr0.0 mm/hr 0.00 in0.0 mm
08:12 PM 69.6°F20.9°C 35.1°F1.7°C 28% 8.1 mph SSW13.0 kmh SSW 11.0 mph17.7 kmh -338605.1 mb 0.00 in0.0 mm 0.00 in/hr0.0 mm/hr 0.00 in0.0 mm
08:17 PM 69.4°F20.8°C 34.9°F1.6°C 28% 8.1 mph S13.0 kmh S 6.9 mph11.1 kmh -338605.1 mb 0.00 in0.0 mm 0.00 in/hr0.0 mm/hr 0.00 in0.0 mm
08:22 PM 69.3°F20.7°C 35.6°F2.0°C 29% 8.9 mph SSW14.3 kmh SSW 8.1 mph13.0 kmh -338605.1 mb 0.00 in0.0 mm 0.00 in/hr0.0 mm/hr 0.00 in0.0 mm
08:27 PM 69.1°F20.6°C 36.3°F2.4°C 30% 8.1 mph S13.0 kmh S 6.0 mph9.7 kmh -338605.1 mb 0.00 in0.0 mm 0.00 in/hr0.0 mm/hr 0.00 in0.0 mm
08:32 PM 68.9°F20.5°C 35.4°F1.9°C 29% 8.9 mph SSW14.3 kmh SSW 8.9 mph14.3 kmh -338605.1 mb 0.00 in0.0 mm 0.00 in/hr0.0 mm/hr 0.00 in0.0 mm
08:37 PM 68.7°F20.4°C 35.2°F1.8°C 29% 8.9 mph SSW14.3 kmh SSW 8.1 mph13.0 kmh -338605.1 mb 0.00 in0.0 mm 0.00 in/hr0.0 mm/hr 0.00 in0.0 mm
08:42 PM 68.5°F20.3°C 35.1°F1.7°C 29% 6.9 mph SW11.1 kmh SW 11.0 mph17.7 kmh -338605.1 mb 0.00 in0.0 mm 0.00 in/hr0.0 mm/hr 0.00 in0.0 mm
08:47 PM 68.5°F20.3°C 36.0°F2.2°C 30% 8.1 mph SW13.0 kmh SW 4.9 mph7.9 kmh -338605.1 mb 0.00 in0.0 mm 0.00 in/hr0.0 mm/hr 0.00 in0.0 mm
08:52 PM 68.4°F20.2°C 35.8°F2.1°C 30% 8.9 mph SSW14.3 kmh SSW 4.9 mph7.9 kmh -338605.1 mb 0.00 in0.0 mm 0.00 in/hr0.0 mm/hr 0.00 in0.0 mm
08:57 PM 68.4°F20.2°C 35.8°F2.1°C 30% 8.9 mph SW14.3 kmh SW 8.1 mph13.0 kmh -338605.1 mb 0.00 in0.0 mm 0.00 in/hr0.0 mm/hr 0.00 in0.0 mm
09:02 PM 68.2°F20.1°C 35.6°F2.0°C 30% 10.1 mph SW16.3 kmh SW 14.1 mph22.7 kmh -338605.1 mb 0.00 in0.0 mm 0.00 in/hr0.0 mm/hr 0.00 in0.0 mm
09:07 PM 68.0°F20.0°C 36.3°F2.4°C 31% 8.9 mph WSW14.3 kmh WSW 10.1 mph16.3 kmh -338605.1 mb 0.00 in0.0 mm 0.00 in/hr0.0 mm/hr 0.00 in0.0 mm
09:12 PM 67.8°F19.9°C 35.2°F1.8°C 30% 8.9 mph SW14.3 kmh SW 6.9 mph11.1 kmh -338605.1 mb 0.00 in0.0 mm 0.00 in/hr0.0 mm/hr 0.00 in0.0 mm
09:17 PM 67.6°F19.8°C 35.1°F1.7°C 30% 10.1 mph WSW16.3 kmh WSW 8.9 mph14.3 kmh -338605.1 mb 0.00 in0.0 mm 0.00 in/hr0.0 mm/hr 0.00 in0.0 mm
09:22 PM 67.6°F19.8°C 34.2°F1.2°C 29% 10.1 mph SW16.3 kmh SW 8.1 mph13.0 kmh -338605.1 mb 0.00 in0.0 mm 0.00 in/hr0.0 mm/hr 0.00 in0.0 mm
09:27 PM 67.6°F19.8°C 36.0°F2.2°C 31% 10.1 mph SW16.3 kmh SW 16.1 mph25.9 kmh -338605.1 mb 0.00 in0.0 mm 0.00 in/hr0.0 mm/hr 0.00 in0.0 mm
09:32 PM 67.5°F19.7°C 35.8°F2.1°C 31% 10.1 mph WSW16.3 kmh WSW 14.1 mph22.7 kmh -338605.1 mb 0.00 in0.0 mm 0.00 in/hr0.0 mm/hr 0.00 in0.0 mm
09:37 PM 67.3°F19.6°C 35.6°F2.0°C 31% 8.1 mph SSW13.0 kmh SSW 6.9 mph11.1 kmh -338605.1 mb 0.00 in0.0 mm 0.00 in/hr0.0 mm/hr 0.00 in0.0 mm
09:42 PM 67.1°F19.5°C 36.3°F2.4°C 32% 8.1 mph SW13.0 kmh SW 8.1 mph13.0 kmh -338605.1 mb 0.00 in0.0 mm 0.00 in/hr0.0 mm/hr 0.00 in0.0 mm
09:47 PM 66.9°F19.4°C 36.1°F2.3°C 32% 6.9 mph SW11.1 kmh SW 11.0 mph17.7 kmh -338605.1 mb 0.00 in0.0 mm 0.00 in/hr0.0 mm/hr 0.00 in0.0 mm
09:52 PM 66.7°F19.3°C 36.0°F2.2°C 32% 8.1 mph WSW13.0 kmh WSW 6.0 mph9.7 kmh -338605.1 mb 0.00 in0.0 mm 0.00 in/hr0.0 mm/hr 0.00 in0.0 mm
09:57 PM 66.7°F19.3°C 36.7°F2.6°C 33% 8.9 mph SW14.3 kmh SW 14.1 mph22.7 kmh -338605.1 mb 0.00 in0.0 mm 0.00 in/hr0.0 mm/hr 0.00 in0.0 mm
10:02 PM 66.6°F19.2°C 36.5°F2.5°C 33% 8.9 mph SW14.3 kmh SW 14.1 mph22.7 kmh -338605.1 mb 0.00 in0.0 mm 0.00 in/hr0.0 mm/hr 0.00 in0.0 mm
10:07 PM 66.6°F19.2°C 36.5°F2.5°C 33% 8.1 mph WSW13.0 kmh WSW 12.1 mph19.5 kmh -338605.1 mb 0.00 in0.0 mm 0.00 in/hr0.0 mm/hr 0.00 in0.0 mm
10:12 PM 66.4°F19.1°C 35.6°F2.0°C 32% 8.9 mph SW14.3 kmh SW 8.1 mph13.0 kmh -338605.1 mb 0.00 in0.0 mm 0.00 in/hr0.0 mm/hr 0.00 in0.0 mm
10:17 PM 66.4°F19.1°C 35.6°F2.0°C 32% 8.1 mph WSW13.0 kmh WSW 11.0 mph17.7 kmh -338605.1 mb 0.00 in0.0 mm 0.00 in/hr0.0 mm/hr 0.00 in0.0 mm
10:22 PM 66.4°F19.1°C 35.6°F2.0°C 32% 8.1 mph SW13.0 kmh SW 4.9 mph7.9 kmh -338605.1 mb 0.00 in0.0 mm 0.00 in/hr0.0 mm/hr 0.00 in0.0 mm
10:27 PM 66.2°F19.0°C 35.4°F1.9°C 32% 8.1 mph SW13.0 kmh SW 11.0 mph17.7 kmh -338605.1 mb 0.00 in0.0 mm 0.00 in/hr0.0 mm/hr 0.00 in0.0 mm
10:32 PM 66.0°F18.9°C 36.1°F2.3°C 33% 8.9 mph SW14.3 kmh SW 6.9 mph11.1 kmh -338605.1 mb 0.00 in0.0 mm 0.00 in/hr0.0 mm/hr 0.00 in0.0 mm
10:37 PM 65.8°F18.8°C 36.0°F2.2°C 33% 8.9 mph SW14.3 kmh SW 6.0 mph9.7 kmh -338605.1 mb 0.00 in0.0 mm 0.00 in/hr0.0 mm/hr 0.00 in0.0 mm
10:42 PM 65.8°F18.8°C 36.0°F2.2°C 33% 8.1 mph SW13.0 kmh SW 10.1 mph16.3 kmh -338605.1 mb 0.00 in0.0 mm 0.00 in/hr0.0 mm/hr 0.00 in0.0 mm
10:47 PM 65.8°F18.8°C 36.0°F2.2°C 33% 8.1 mph SW13.0 kmh SW 2.0 mph3.2 kmh -338605.1 mb 0.00 in0.0 mm 0.00 in/hr0.0 mm/hr 0.00 in0.0 mm
10:52 PM 65.7°F18.7°C 35.8°F2.1°C 33% 8.1 mph SW13.0 kmh SW 8.1 mph13.0 kmh -338605.1 mb 0.00 in0.0 mm 0.00 in/hr0.0 mm/hr 0.00 in0.0 mm
10:57 PM 65.7°F18.7°C 35.8°F2.1°C 33% 8.9 mph WSW14.3 kmh WSW 8.9 mph14.3 kmh -338605.1 mb 0.00 in0.0 mm 0.00 in/hr0.0 mm/hr 0.00 in0.0 mm
11:02 PM 65.5°F18.6°C 36.3°F2.4°C 34% 8.9 mph SW14.3 kmh SW 8.1 mph13.0 kmh -338605.1 mb 0.00 in0.0 mm 0.00 in/hr0.0 mm/hr 0.00 in0.0 mm
11:07 PM 65.3°F18.5°C 36.1°F2.3°C 34% 10.1 mph SW16.3 kmh SW 10.1 mph16.3 kmh -338605.1 mb 0.00 in0.0 mm 0.00 in/hr0.0 mm/hr 0.00 in0.0 mm
11:12 PM 65.1°F18.4°C 36.1°F2.3°C 34% 8.9 mph SW14.3 kmh SW 11.0 mph17.7 kmh -338605.1 mb 0.00 in0.0 mm 0.00 in/hr0.0 mm/hr 0.00 in0.0 mm
11:17 PM 64.9°F18.3°C 36.7°F2.6°C 35% 8.9 mph SW14.3 kmh SW 4.0 mph6.4 kmh -338605.1 mb 0.00 in0.0 mm 0.00 in/hr0.0 mm/hr 0.00 in0.0 mm
11:22 PM 64.9°F18.3°C 36.7°F2.6°C 35% 8.9 mph SW14.3 kmh SW 11.0 mph17.7 kmh -338605.1 mb 0.00 in0.0 mm 0.00 in/hr0.0 mm/hr 0.00 in0.0 mm
11:27 PM 64.8°F18.2°C 37.2°F2.9°C 36% 8.9 mph SSW14.3 kmh SSW 8.1 mph13.0 kmh -338605.1 mb 0.00 in0.0 mm 0.00 in/hr0.0 mm/hr 0.00 in0.0 mm
11:32 PM 64.6°F18.1°C 35.6°F2.0°C 34% 8.9 mph WSW14.3 kmh WSW 10.1 mph16.3 kmh -338605.1 mb 0.00 in0.0 mm 0.00 in/hr0.0 mm/hr 0.00 in0.0 mm
11:37 PM 64.6°F18.1°C 34.9°F1.6°C 33% 8.9 mph SW14.3 kmh SW 11.0 mph17.7 kmh -338605.1 mb 0.00 in0.0 mm 0.00 in/hr0.0 mm/hr 0.00 in0.0 mm
11:42 PM 64.6°F18.1°C 34.9°F1.6°C 33% 8.9 mph SW14.3 kmh SW 4.0 mph6.4 kmh -338605.1 mb 0.00 in0.0 mm 0.00 in/hr0.0 mm/hr 0.00 in0.0 mm
11:47 PM 64.4°F18.0°C 35.4°F1.9°C 34% 8.1 mph SW13.0 kmh SW 12.1 mph19.5 kmh -338605.1 mb 0.00 in0.0 mm 0.00 in/hr0.0 mm/hr 0.00 in0.0 mm
11:52 PM 64.2°F17.9°C 36.0°F2.2°C 35% 8.1 mph SW13.0 kmh SW 6.0 mph9.7 kmh -338605.1 mb 0.00 in0.0 mm 0.00 in/hr0.0 mm/hr 0.00 in0.0 mm
11:57 PM 64.2°F17.9°C 36.0°F2.2°C 35% 6.9 mph WSW11.1 kmh WSW 8.9 mph14.3 kmh -338605.1 mb 0.00 in0.0 mm 0.00 in/hr0.0 mm/hr 0.00 in0.0 mm